createdAt,value
2024-04-30T00:00:19.568Z,3.30
2024-04-30T00:02:47.058Z,3.40
2024-04-30T00:05:17.802Z,3.90
2024-04-30T00:07:45.348Z,3.10
2024-04-30T00:10:12.830Z,3.33
2024-04-30T00:12:40.644Z,3.75
2024-04-30T00:15:08.608Z,3.10
2024-04-30T00:17:35.966Z,2.95
2024-04-30T00:20:03.806Z,3.03
2024-04-30T00:22:34.318Z,2.78
2024-04-30T00:25:01.883Z,3.13
2024-04-30T00:27:29.650Z,2.90
2024-04-30T00:29:57.312Z,2.95
2024-04-30T00:32:24.916Z,3.60
2024-04-30T00:34:53.772Z,2.95
2024-04-30T00:37:21.233Z,2.88
2024-04-30T00:39:51.404Z,3.05
2024-04-30T00:42:18.940Z,3.05
2024-04-30T00:44:46.398Z,2.75
2024-04-30T00:47:14.723Z,2.92
2024-04-30T00:49:42.554Z,3.95
2024-04-30T00:52:10.265Z,2.83
2024-04-30T00:54:37.976Z,3.25
2024-04-30T00:57:09.171Z,3.30
2024-04-30T00:59:36.735Z,3.03
2024-04-30T01:02:04.890Z,2.65
2024-04-30T01:04:32.383Z,3.13
2024-04-30T01:06:59.794Z,2.55
2024-04-30T01:09:27.133Z,3.10
2024-04-30T01:11:54.726Z,2.63
2024-04-30T01:14:25.587Z,3.17
2024-04-30T01:19:20.169Z,2.58
2024-04-30T01:21:47.780Z,3.00
2024-04-30T01:24:17.948Z,3.38
2024-04-30T01:26:45.527Z,2.88
2024-04-30T01:29:13.055Z,3.40
2024-04-30T01:31:40.533Z,3.35
2024-04-30T01:34:08.286Z,3.60
2024-04-30T01:36:35.787Z,2.97
2024-04-30T01:39:03.408Z,3.25
2024-04-30T01:41:33.599Z,3.60
2024-04-30T01:44:01.173Z,3.63
2024-04-30T01:46:28.585Z,2.78
2024-04-30T01:48:56.037Z,2.95
2024-04-30T01:51:23.526Z,2.90
2024-04-30T01:53:51.004Z,3.47
2024-04-30T01:56:18.373Z,3.25
2024-04-30T01:58:48.398Z,3.28
2024-04-30T02:01:17.252Z,3.20
2024-04-30T02:03:44.706Z,3.03
2024-04-30T02:06:12.218Z,3.28
2024-04-30T02:08:39.736Z,3.75
2024-04-30T02:11:07.099Z,3.05
2024-04-30T02:13:34.642Z,3.40
2024-04-30T02:16:05.494Z,3.10
2024-04-30T02:18:33.295Z,3.20
2024-04-30T02:21:20.604Z,3.28
2024-04-30T02:23:48.163Z,3.38
2024-04-30T02:26:15.712Z,3.85
2024-04-30T02:28:43.202Z,3.35
2024-04-30T02:31:32.061Z,4.22
2024-04-30T02:34:19.878Z,3.58
2024-04-30T02:36:47.519Z,3.30
2024-04-30T02:39:14.948Z,3.35
2024-04-30T02:41:42.506Z,3.35
2024-04-30T02:44:09.975Z,3.17
2024-04-30T02:46:40.119Z,3.45
2024-04-30T02:49:07.571Z,3.60
2024-04-30T02:51:35.307Z,3.15
2024-04-30T02:54:02.766Z,3.63
2024-04-30T02:56:30.116Z,3.13
2024-04-30T02:58:57.574Z,4.68
2024-04-30T03:01:25.116Z,3.08
2024-04-30T03:03:55.286Z,3.00
2024-04-30T03:06:22.709Z,2.92
2024-04-30T03:08:50.219Z,3.13
2024-04-30T03:11:17.782Z,3.05
2024-04-30T03:13:48.045Z,2.92
2024-04-30T03:16:15.444Z,3.40
2024-04-30T03:18:42.884Z,3.67
2024-04-30T03:21:13.137Z,3.50
2024-04-30T03:23:40.701Z,3.40
2024-04-30T03:26:08.097Z,3.22
2024-04-30T03:28:35.747Z,3.55
2024-04-30T03:31:06.510Z,3.22
2024-04-30T03:36:02.830Z,3.50
2024-04-30T03:38:32.969Z,3.92
2024-04-30T03:41:00.355Z,3.30
2024-04-30T03:43:27.935Z,3.58
2024-04-30T03:45:55.601Z,3.55
2024-04-30T03:48:23.149Z,3.28
2024-04-30T03:50:55.216Z,3.42
2024-04-30T03:53:22.804Z,3.47
2024-04-30T03:55:52.951Z,3.42
2024-04-30T03:58:21.776Z,3.90
2024-04-30T04:00:49.431Z,3.90
2024-04-30T04:03:16.995Z,4.20
2024-04-30T04:05:44.427Z,3.40
2024-04-30T04:08:11.895Z,4.20
2024-04-30T04:10:42.650Z,3.63
2024-04-30T04:13:31.315Z,3.58
2024-04-30T04:15:58.924Z,3.33
2024-04-30T04:18:26.412Z,4.18
2024-04-30T04:20:53.970Z,3.97
2024-04-30T04:23:21.390Z,3.70
2024-04-30T04:25:48.799Z,3.78
2024-04-30T04:28:18.901Z,3.42
2024-04-30T04:30:46.992Z,3.72
2024-04-30T04:33:14.507Z,3.60
2024-04-30T04:35:42.400Z,3.38
2024-04-30T04:38:09.896Z,3.13
2024-04-30T04:40:37.483Z,4.63
2024-04-30T04:43:07.105Z,4.25
2024-04-30T04:45:38.872Z,3.85
2024-04-30T04:48:08.959Z,3.78
2024-04-30T04:50:36.513Z,3.50
2024-04-30T04:53:04.428Z,3.40
2024-04-30T04:55:31.905Z,3.72
2024-04-30T04:57:59.473Z,4.00
2024-04-30T05:00:27.244Z,4.13
2024-04-30T05:02:57.398Z,4.28
2024-04-30T05:05:25.026Z,4.47
2024-04-30T05:07:52.490Z,3.65
2024-04-30T05:10:20.096Z,3.70
2024-04-30T05:12:47.560Z,4.35
2024-04-30T05:15:15.136Z,3.72
2024-04-30T05:17:42.786Z,3.80
2024-04-30T05:20:13.305Z,3.88
2024-04-30T05:22:41.034Z,4.15
2024-04-30T05:25:08.671Z,3.97
2024-04-30T05:27:36.214Z,4.22
2024-04-30T05:30:04.430Z,3.60
2024-04-30T05:32:35.578Z,3.88
2024-04-30T05:35:03.121Z,3.80
2024-04-30T05:37:33.829Z,3.65
2024-04-30T05:40:01.341Z,3.78
2024-04-30T05:42:31.685Z,4.32
2024-04-30T05:44:59.425Z,5.03
2024-04-30T05:47:26.897Z,4.65
2024-04-30T05:49:54.441Z,3.90
2024-04-30T05:52:21.954Z,4.28
2024-04-30T05:54:52.114Z,4.63
2024-04-30T05:57:19.836Z,4.45
2024-04-30T05:59:47.318Z,3.92
2024-04-30T06:02:14.792Z,3.63
2024-04-30T06:04:42.408Z,4.05
2024-04-30T06:07:09.972Z,3.38
2024-04-30T06:09:37.480Z,4.20
2024-04-30T06:12:08.105Z,5.47
2024-04-30T06:14:35.704Z,7.90
2024-04-30T06:17:03.327Z,5.30
2024-04-30T06:19:30.841Z,5.25
2024-04-30T06:21:58.405Z,4.93
2024-04-30T06:24:26.154Z,4.35
2024-04-30T06:26:53.626Z,4.15
2024-04-30T06:29:23.790Z,4.07
2024-04-30T06:31:51.280Z,4.78
2024-04-30T06:34:18.783Z,4.40
2024-04-30T06:36:46.205Z,3.67
2024-04-30T06:39:13.656Z,4.22
2024-04-30T06:41:41.086Z,3.47
2024-04-30T06:44:08.629Z,3.72
2024-04-30T06:46:38.767Z,4.50
2024-04-30T06:49:07.631Z,4.95
2024-04-30T06:51:35.081Z,5.35
2024-04-30T06:54:02.572Z,4.82
2024-04-30T06:56:30.054Z,3.88
2024-04-30T06:58:57.692Z,4.03
2024-04-30T07:01:25.209Z,4.40
2024-04-30T07:03:55.565Z,4.65
2024-04-30T07:06:23.338Z,4.78
2024-04-30T07:08:50.790Z,5.35
2024-04-30T07:11:18.401Z,4.90
2024-04-30T07:13:45.906Z,8.30
2024-04-30T07:16:13.473Z,8.90
2024-04-30T07:18:41.913Z,10.63
2024-04-30T07:21:12.262Z,8.30
2024-04-30T07:23:39.715Z,7.85
2024-04-30T07:26:08.575Z,6.63
2024-04-30T07:28:36.162Z,5.15
2024-04-30T07:31:03.851Z,5.40
2024-04-30T07:33:31.437Z,6.03
2024-04-30T07:35:58.970Z,5.18
2024-04-30T07:38:29.004Z,5.68
2024-04-30T07:40:56.551Z,5.95
2024-04-30T07:43:23.978Z,6.03
2024-04-30T07:45:51.515Z,5.57
2024-04-30T07:48:19.050Z,5.00
2024-04-30T07:50:46.725Z,5.07
2024-04-30T07:53:14.261Z,5.15
2024-04-30T07:55:44.556Z,5.00
2024-04-30T07:58:12.010Z,6.28
2024-04-30T08:00:39.684Z,6.65
2024-04-30T08:03:07.182Z,6.20
2024-04-30T08:05:42.634Z,6.07
2024-04-30T08:08:11.837Z,5.80
2024-04-30T08:10:39.353Z,5.97
2024-04-30T08:13:10.764Z,6.47
2024-04-30T08:15:38.434Z,5.55
2024-04-30T08:18:06.101Z,5.78
2024-04-30T08:20:33.755Z,5.75
2024-04-30T08:23:01.201Z,4.70
2024-04-30T08:25:29.200Z,7.25
2024-04-30T08:27:56.765Z,7.03
2024-04-30T08:30:26.795Z,6.80
2024-04-30T08:35:22.145Z,7.05
2024-04-30T08:37:54.969Z,5.78
2024-04-30T08:40:28.295Z,4.80
2024-04-30T08:42:59.935Z,4.88
2024-04-30T08:45:43.108Z,5.25
2024-04-30T08:48:12.644Z,4.40
2024-04-30T08:50:42.752Z,4.70
2024-04-30T08:53:12.471Z,4.85
2024-04-30T08:55:42.502Z,5.07
2024-04-30T08:58:10.089Z,4.53
2024-04-30T09:00:37.603Z,5.65
2024-04-30T09:03:10.131Z,4.80
2024-04-30T09:05:37.796Z,5.35
2024-04-30T09:08:05.718Z,5.15
2024-04-30T09:10:33.926Z,3.95
2024-04-30T09:13:01.788Z,4.45
2024-04-30T09:15:29.533Z,3.97
2024-04-30T09:18:09.794Z,3.72
2024-04-30T09:20:47.439Z,3.83
2024-04-30T09:23:26.108Z,3.92
2024-04-30T09:25:54.074Z,3.55
2024-04-30T09:28:22.219Z,3.20
2024-04-30T09:30:56.121Z,3.30
2024-04-30T09:33:28.165Z,3.15
2024-04-30T09:36:08.141Z,3.25
2024-04-30T09:38:38.455Z,2.75
2024-04-30T09:41:11.039Z,2.50
2024-04-30T09:43:39.458Z,2.38
2024-04-30T09:46:08.515Z,2.53
2024-04-30T09:48:41.560Z,2.58
2024-04-30T09:51:14.050Z,2.33
2024-04-30T09:53:46.595Z,3.03
2024-04-30T09:56:14.953Z,2.45
2024-04-30T09:58:42.447Z,2.28
2024-04-30T10:01:14.849Z,2.50
2024-04-30T10:03:46.608Z,3.13
2024-04-30T10:06:16.930Z,2.42
2024-04-30T10:08:45.572Z,2.30
2024-04-30T10:11:13.474Z,2.35
2024-04-30T10:13:59.249Z,2.20
2024-04-30T10:16:27.698Z,2.83
2024-04-30T10:19:07.942Z,2.25
2024-04-30T10:21:36.484Z,2.20
2024-04-30T10:24:20.068Z,2.17
2024-04-30T10:26:51.750Z,2.35
2024-04-30T10:29:19.312Z,2.55
2024-04-30T10:31:48.603Z,2.72
2024-04-30T10:34:20.232Z,2.63
2024-04-30T10:36:52.492Z,3.08
2024-04-30T10:39:26.541Z,2.80
2024-04-30T10:41:54.519Z,3.13
2024-04-30T10:44:21.999Z,2.88
2024-04-30T10:46:50.374Z,2.95
2024-04-30T10:49:23.813Z,2.65
2024-04-30T10:51:51.740Z,3.38
2024-04-30T10:54:19.910Z,2.90
2024-04-30T10:56:47.395Z,2.88
2024-04-30T10:59:14.875Z,3.10
2024-04-30T11:01:42.326Z,2.85
2024-04-30T11:04:11.262Z,3.25
2024-04-30T11:06:42.480Z,3.03
2024-04-30T11:09:12.422Z,2.78
2024-04-30T11:11:50.205Z,2.88
2024-04-30T11:14:19.445Z,2.88
2024-04-30T11:16:49.710Z,3.13
2024-04-30T11:19:17.933Z,2.78
2024-04-30T11:21:48.768Z,3.00
2024-04-30T11:24:17.539Z,3.13
2024-04-30T11:26:48.578Z,3.17
2024-04-30T11:29:30.690Z,4.38
2024-04-30T11:32:05.520Z,3.90
2024-04-30T11:34:33.043Z,4.38
2024-04-30T11:37:03.372Z,3.92
2024-04-30T11:39:30.946Z,3.60
2024-04-30T11:42:06.979Z,3.17
2024-04-30T11:44:45.543Z,3.20
2024-04-30T11:47:12.918Z,2.80
2024-04-30T11:49:40.709Z,2.47
2024-04-30T11:52:11.134Z,3.22
2024-04-30T11:54:38.669Z,3.00
2024-04-30T11:57:07.980Z,3.25
2024-04-30T11:59:36.087Z,3.50
2024-04-30T12:02:03.849Z,3.35
2024-04-30T12:04:31.342Z,3.63
2024-04-30T12:06:58.846Z,2.95
2024-04-30T12:09:29.021Z,2.53
2024-04-30T12:11:56.689Z,2.58
2024-04-30T12:14:24.207Z,2.55
2024-04-30T12:16:51.901Z,2.75
2024-04-30T12:19:19.387Z,2.75
2024-04-30T12:21:46.967Z,3.03
2024-04-30T12:24:14.422Z,2.95
2024-04-30T12:26:44.729Z,3.00
2024-04-30T12:29:12.348Z,2.88
2024-04-30T12:31:41.778Z,3.10
2024-04-30T12:34:09.663Z,2.80
2024-04-30T12:36:38.921Z,2.38
2024-04-30T12:39:06.498Z,3.05
2024-04-30T12:41:37.747Z,2.80
2024-04-30T12:44:10.193Z,2.45
2024-04-30T12:46:38.115Z,2.75
2024-04-30T12:49:05.680Z,3.00
2024-04-30T12:51:33.185Z,3.53
2024-04-30T12:54:00.664Z,2.90
2024-04-30T12:56:28.319Z,3.05
2024-04-30T12:58:55.982Z,2.67
2024-04-30T13:01:26.646Z,3.00
2024-04-30T13:03:54.288Z,3.15
2024-04-30T13:06:21.729Z,2.95
2024-04-30T13:08:49.269Z,2.83
2024-04-30T13:11:37.412Z,3.10
2024-04-30T13:14:05.017Z,2.92
2024-04-30T13:16:40.955Z,3.72
2024-04-30T13:19:09.204Z,3.22
2024-04-30T13:21:36.871Z,3.10
2024-04-30T13:24:04.701Z,3.30
2024-04-30T13:26:32.227Z,2.90
2024-04-30T13:28:59.710Z,3.60
2024-04-30T13:31:27.244Z,2.72
2024-04-30T13:33:57.439Z,2.58
2024-04-30T13:36:24.906Z,2.83
2024-04-30T13:38:53.664Z,2.80
2024-04-30T13:41:21.156Z,3.05
2024-04-30T13:43:49.782Z,2.88
2024-04-30T13:46:17.423Z,2.50
2024-04-30T13:48:45.228Z,2.08
2024-04-30T13:51:16.673Z,2.38
2024-04-30T13:53:44.228Z,3.13
2024-04-30T13:56:13.832Z,2.40
2024-04-30T13:58:41.667Z,2.28
2024-04-30T14:01:13.638Z,2.20
2024-04-30T14:03:41.313Z,2.50
2024-04-30T14:06:10.704Z,2.50
2024-04-30T14:08:41.065Z,1.98
2024-04-30T14:11:08.885Z,2.00
2024-04-30T14:13:36.650Z,2.47
2024-04-30T14:16:04.986Z,2.30
2024-04-30T14:18:34.188Z,2.60
2024-04-30T14:21:01.848Z,2.40
2024-04-30T14:23:29.733Z,2.10
2024-04-30T14:25:59.829Z,2.17
2024-04-30T14:28:27.733Z,2.10
2024-04-30T14:30:55.187Z,1.85
2024-04-30T14:33:22.718Z,2.20
2024-04-30T14:36:08.580Z,2.15
2024-04-30T14:38:38.529Z,1.98
2024-04-30T14:41:12.157Z,2.15
2024-04-30T14:43:39.870Z,2.10
2024-04-30T14:46:08.017Z,1.90
2024-04-30T14:48:35.580Z,2.00
2024-04-30T14:51:03.130Z,1.90
2024-04-30T14:53:30.707Z,2.20
2024-04-30T14:55:58.305Z,2.00
2024-04-30T14:58:28.434Z,2.20
2024-04-30T15:00:56.435Z,2.17
2024-04-30T15:03:25.191Z,1.95
2024-04-30T15:05:52.804Z,1.75
2024-04-30T15:08:20.439Z,2.17
2024-04-30T15:10:47.950Z,1.80
2024-04-30T15:13:15.715Z,2.20
2024-04-30T15:15:45.860Z,2.20
2024-04-30T15:18:13.782Z,2.20
2024-04-30T15:20:41.962Z,2.00
2024-04-30T15:23:09.775Z,2.38
2024-04-30T15:25:37.315Z,2.35
2024-04-30T15:28:05.444Z,2.25
2024-04-30T15:30:32.930Z,2.30
2024-04-30T15:33:05.993Z,2.22
2024-04-30T15:35:35.648Z,1.98
2024-04-30T15:38:03.118Z,1.80
2024-04-30T15:40:30.677Z,1.85
2024-04-30T15:42:58.231Z,1.90
2024-04-30T15:45:25.731Z,2.15
2024-04-30T15:47:53.227Z,1.92
2024-04-30T15:50:23.542Z,1.90
2024-04-30T15:52:51.240Z,2.00
2024-04-30T15:55:18.808Z,1.92
2024-04-30T16:00:16.962Z,1.80
2024-04-30T16:02:45.383Z,2.22
2024-04-30T16:05:13.083Z,2.10
2024-04-30T16:07:43.495Z,1.90
2024-04-30T16:10:11.263Z,2.05
2024-04-30T16:12:38.720Z,2.10
2024-04-30T16:15:06.958Z,2.80
2024-04-30T16:17:34.674Z,2.17
2024-04-30T16:20:03.585Z,2.47
2024-04-30T16:25:02.748Z,2.40
2024-04-30T16:27:30.733Z,2.03
2024-04-30T16:29:58.183Z,2.30
2024-04-30T16:32:25.834Z,2.10
2024-04-30T16:34:54.399Z,2.00
2024-04-30T16:37:21.999Z,1.95
2024-04-30T16:39:50.113Z,2.10
2024-04-30T16:42:20.772Z,2.17
2024-04-30T16:44:48.934Z,2.20
2024-04-30T16:47:20.731Z,2.60
2024-04-30T16:49:48.332Z,1.70
2024-04-30T16:52:15.884Z,2.45
2024-04-30T16:54:43.438Z,2.30
2024-04-30T16:57:13.496Z,2.35
2024-04-30T16:59:43.740Z,2.33
2024-04-30T17:02:12.234Z,2.30
2024-04-30T17:04:40.227Z,2.03
2024-04-30T17:07:07.784Z,2.28
2024-04-30T17:09:35.229Z,2.35
2024-04-30T17:12:02.885Z,2.10
2024-04-30T17:14:30.338Z,2.10
2024-04-30T17:17:00.561Z,2.17
2024-04-30T17:19:28.108Z,2.78
2024-04-30T17:21:55.837Z,2.80
2024-04-30T17:24:23.341Z,2.92
2024-04-30T17:26:50.836Z,3.15
2024-04-30T17:29:18.370Z,3.33
2024-04-30T17:31:46.308Z,2.50
2024-04-30T17:34:16.803Z,3.00
2024-04-30T17:36:47.119Z,2.60
2024-04-30T17:39:17.402Z,2.22
2024-04-30T17:41:45.276Z,2.13
2024-04-30T17:44:13.879Z,3.00
2024-04-30T17:46:44.957Z,2.42
2024-04-30T17:49:12.919Z,2.22
2024-04-30T17:51:47.260Z,2.30
2024-04-30T17:54:16.356Z,2.95
2024-04-30T17:56:44.469Z,2.53
2024-04-30T17:59:11.942Z,2.38
2024-04-30T18:01:44.535Z,2.42
2024-04-30T18:04:13.598Z,2.65
2024-04-30T18:06:43.667Z,3.65
2024-04-30T18:09:13.839Z,3.88
2024-04-30T18:11:41.403Z,4.72
2024-04-30T18:14:09.058Z,5.57
2024-04-30T18:16:39.066Z,4.68
2024-04-30T18:19:07.784Z,5.18
2024-04-30T18:21:41.325Z,5.65
2024-04-30T18:24:09.219Z,4.53
2024-04-30T18:26:43.147Z,3.88
2024-04-30T18:29:11.107Z,3.67
2024-04-30T18:31:38.619Z,3.53
2024-04-30T18:34:06.188Z,3.42
2024-04-30T18:36:37.181Z,3.45
2024-04-30T18:39:05.836Z,3.67
2024-04-30T18:41:33.473Z,2.95
2024-04-30T18:44:03.497Z,2.90
2024-04-30T18:46:31.005Z,3.10
2024-04-30T18:48:59.213Z,2.97
2024-04-30T18:51:26.793Z,3.15
2024-04-30T18:53:54.287Z,4.13
2024-04-30T18:56:22.294Z,3.08
2024-04-30T18:58:49.942Z,3.05
2024-04-30T19:01:20.134Z,3.00
2024-04-30T19:03:50.786Z,2.92
2024-04-30T19:06:21.621Z,3.10
2024-04-30T19:08:52.312Z,3.58
2024-04-30T19:11:20.967Z,4.03
2024-04-30T19:13:48.628Z,3.30
2024-04-30T19:16:16.691Z,3.65
2024-04-30T19:18:47.339Z,3.13
2024-04-30T19:21:15.406Z,3.38
2024-04-30T19:23:42.922Z,3.20
2024-04-30T19:26:14.792Z,3.90
2024-04-30T19:28:45.170Z,4.10
2024-04-30T19:31:16.841Z,3.88
2024-04-30T19:33:47.393Z,4.18
2024-04-30T19:38:42.817Z,4.57
2024-04-30T19:41:10.577Z,3.85
2024-04-30T19:43:38.362Z,3.88
2024-04-30T19:46:09.414Z,3.70
2024-04-30T19:48:37.651Z,3.08
2024-04-30T19:51:08.086Z,2.97
2024-04-30T19:53:36.590Z,3.55
2024-04-30T19:56:04.391Z,3.22
2024-04-30T19:58:31.964Z,3.70
2024-04-30T20:00:59.549Z,2.92
2024-04-30T20:03:27.137Z,3.10
2024-04-30T20:06:11.979Z,3.85
2024-04-30T20:08:40.954Z,3.15
2024-04-30T20:11:17.010Z,3.47
2024-04-30T20:13:45.298Z,2.85
2024-04-30T20:16:12.911Z,3.83
2024-04-30T20:18:43.723Z,3.95
2024-04-30T20:21:17.327Z,4.00
2024-04-30T20:23:46.092Z,3.40
2024-04-30T20:26:13.929Z,3.30
2024-04-30T20:28:41.629Z,3.53
2024-04-30T20:31:09.219Z,3.47
2024-04-30T20:33:37.051Z,3.75
2024-04-30T20:36:07.782Z,4.53
2024-04-30T20:38:38.915Z,3.63
2024-04-30T20:41:11.466Z,3.85
2024-04-30T20:43:39.431Z,4.07
2024-04-30T20:46:07.323Z,8.18
2024-04-30T20:48:35.048Z,9.93
2024-04-30T20:51:04.983Z,11.48
2024-04-30T20:53:32.494Z,18.08
2024-04-30T20:56:05.002Z,16.85
2024-04-30T20:58:32.581Z,11.95
2024-04-30T21:01:00.253Z,12.93
2024-04-30T21:03:30.765Z,10.60
2024-04-30T21:05:58.552Z,4.45
2024-04-30T21:08:26.160Z,3.67
2024-04-30T21:10:53.769Z,3.70
2024-04-30T21:13:24.123Z,3.65
2024-04-30T21:15:52.039Z,3.17
2024-04-30T21:18:19.669Z,3.58
2024-04-30T21:20:47.429Z,4.25
2024-04-30T21:23:14.952Z,6.25
2024-04-30T21:25:42.549Z,5.90
2024-04-30T21:28:10.245Z,4.90
2024-04-30T21:30:41.681Z,5.32
2024-04-30T21:33:09.618Z,5.47
2024-04-30T21:35:38.748Z,4.93
2024-04-30T21:38:06.294Z,4.13
2024-04-30T21:40:34.099Z,3.40
2024-04-30T21:43:01.621Z,3.30
2024-04-30T21:45:29.345Z,3.15
2024-04-30T21:47:59.683Z,2.60
2024-04-30T21:50:27.373Z,2.58
2024-04-30T21:52:54.956Z,2.80
2024-04-30T21:55:22.422Z,3.50
2024-04-30T21:57:50.047Z,12.98
2024-04-30T22:00:17.813Z,8.20
2024-04-30T22:02:45.459Z,7.95
2024-04-30T22:05:15.700Z,3.58
2024-04-30T22:07:43.369Z,4.28
2024-04-30T22:10:10.808Z,10.23
2024-04-30T22:12:38.693Z,8.02
2024-04-30T22:15:06.649Z,17.58
2024-04-30T22:17:34.145Z,10.85
2024-04-30T22:20:01.847Z,6.10
2024-04-30T22:22:32.367Z,3.80
2024-04-30T22:24:59.882Z,3.13
2024-04-30T22:27:27.870Z,2.80
2024-04-30T22:30:01.027Z,2.63
2024-04-30T22:32:33.826Z,12.85
2024-04-30T22:35:01.233Z,7.97
2024-04-30T22:37:33.597Z,2.88
2024-04-30T22:40:01.453Z,2.53
2024-04-30T22:42:30.912Z,3.15
2024-04-30T22:44:58.367Z,2.63
2024-04-30T22:47:26.312Z,2.50
2024-04-30T22:49:54.102Z,5.47
2024-04-30T22:52:21.619Z,9.00
2024-04-30T22:54:52.038Z,12.05
2024-04-30T22:57:19.653Z,8.10
2024-04-30T22:59:47.069Z,4.40
2024-04-30T23:02:14.511Z,3.70
2024-04-30T23:04:41.997Z,3.80
2024-04-30T23:07:09.495Z,3.45
2024-04-30T23:09:36.960Z,3.78
2024-04-30T23:12:07.442Z,4.03
2024-04-30T23:14:34.953Z,3.70
2024-04-30T23:17:02.638Z,16.02
2024-04-30T23:19:30.157Z,8.75
2024-04-30T23:21:57.775Z,6.15
2024-04-30T23:24:25.337Z,6.60
2024-04-30T23:26:52.903Z,6.00
2024-04-30T23:29:23.968Z,3.78
2024-04-30T23:31:52.917Z,3.63
2024-04-30T23:34:21.279Z,4.20
2024-04-30T23:36:54.188Z,3.13
2024-04-30T23:39:21.780Z,3.67
2024-04-30T23:41:49.653Z,3.17
2024-04-30T23:44:17.066Z,3.20
2024-04-30T23:46:47.433Z,3.50
2024-04-30T23:49:15.161Z,3.45
2024-04-30T23:51:42.695Z,4.22
2024-04-30T23:54:10.160Z,3.83
2024-04-30T23:56:37.672Z,3.42
2024-04-30T23:59:05.260Z,4.55
